createdAt,value
2017-07-03T00:01:28.464Z,14.70
2017-07-03T00:03:56.011Z,14.70
2017-07-03T00:06:24.333Z,14.60
2017-07-03T00:08:51.866Z,14.60
2017-07-03T00:11:19.420Z,14.50
2017-07-03T00:13:46.964Z,14.60
2017-07-03T00:16:14.520Z,14.60
2017-07-03T00:18:42.037Z,14.50
2017-07-03T00:21:09.594Z,14.60
2017-07-03T00:23:37.122Z,14.40
2017-07-03T00:26:04.669Z,14.30
2017-07-03T00:28:32.197Z,14.40
2017-07-03T00:30:59.755Z,14.50
2017-07-03T00:33:27.279Z,14.40
2017-07-03T00:35:54.808Z,14.50
2017-07-03T00:38:22.354Z,14.50
2017-07-03T00:40:49.891Z,14.20
2017-07-03T00:43:17.451Z,14.20
2017-07-03T00:45:44.971Z,14.00
2017-07-03T00:48:12.532Z,14.20
2017-07-03T00:50:40.115Z,14.30
2017-07-03T00:53:07.663Z,14.30
2017-07-03T00:55:35.198Z,14.20
2017-07-03T00:58:03.528Z,14.10
2017-07-03T01:00:31.046Z,14.10
2017-07-03T01:02:58.594Z,14.10
2017-07-03T01:05:26.114Z,14.20
2017-07-03T01:07:53.659Z,14.20
2017-07-03T01:10:21.195Z,14.10
2017-07-03T01:12:48.750Z,14.20
2017-07-03T01:15:16.273Z,14.10
2017-07-03T01:17:43.859Z,14.00
2017-07-03T01:20:11.392Z,14.00
2017-07-03T01:22:38.935Z,14.00
2017-07-03T01:25:06.471Z,13.80
2017-07-03T01:27:34.006Z,13.90
2017-07-03T01:30:01.562Z,14.10
2017-07-03T01:32:29.118Z,14.00
2017-07-03T01:34:56.674Z,13.80
2017-07-03T01:37:24.189Z,13.80
2017-07-03T01:39:51.730Z,13.80
2017-07-03T01:42:19.269Z,13.70
2017-07-03T01:44:46.810Z,13.90
2017-07-03T01:47:14.354Z,13.50
2017-07-03T01:49:41.893Z,13.90
2017-07-03T01:52:09.415Z,13.40
2017-07-03T01:54:36.966Z,13.70
2017-07-03T01:57:04.489Z,13.70
2017-07-03T01:59:32.020Z,13.60
2017-07-03T02:01:59.539Z,13.60
2017-07-03T02:04:27.074Z,13.50
2017-07-03T02:06:54.625Z,13.30
2017-07-03T02:09:22.153Z,13.10
2017-07-03T02:11:49.704Z,13.40
2017-07-03T02:14:17.239Z,13.40
2017-07-03T02:16:44.788Z,13.00
2017-07-03T02:19:12.310Z,12.90
2017-07-03T02:21:39.859Z,13.20
2017-07-03T02:24:07.390Z,13.10
2017-07-03T02:26:34.934Z,13.10
2017-07-03T02:29:02.574Z,13.20
2017-07-03T02:31:30.118Z,13.30
2017-07-03T02:33:57.651Z,13.30
2017-07-03T02:36:26.349Z,13.40
2017-07-03T02:38:53.881Z,13.40
2017-07-03T02:41:22.583Z,13.10
2017-07-03T02:46:19.023Z,13.20
2017-07-03T02:48:46.567Z,13.20
2017-07-03T02:51:14.110Z,13.40
2017-07-03T02:58:39.413Z,13.50
2017-07-03T03:01:06.976Z,13.10
2017-07-03T03:03:34.578Z,13.40
2017-07-03T03:06:02.185Z,13.50
2017-07-03T03:08:29.735Z,13.30
2017-07-03T03:10:57.268Z,13.30
2017-07-03T03:13:24.823Z,13.30
2017-07-03T03:15:52.363Z,13.40
2017-07-03T03:18:19.909Z,13.30
2017-07-03T03:20:47.443Z,13.20
2017-07-03T03:23:14.970Z,13.70
2017-07-03T03:25:43.293Z,13.50
2017-07-03T03:28:10.835Z,13.50
2017-07-03T03:30:38.395Z,13.80
2017-07-03T03:33:05.940Z,13.50
2017-07-03T03:35:33.491Z,13.60
2017-07-03T03:38:01.035Z,13.50
2017-07-03T03:40:28.578Z,13.50
2017-07-03T03:42:56.100Z,13.60
2017-07-03T03:45:23.633Z,13.50
2017-07-03T03:47:51.161Z,13.20
2017-07-03T03:50:18.745Z,13.20
2017-07-03T03:52:46.270Z,13.40
2017-07-03T03:55:13.818Z,13.40
2017-07-03T03:57:41.345Z,12.90
2017-07-03T04:00:08.875Z,13.00
2017-07-03T04:02:36.429Z,13.30
2017-07-03T04:05:03.968Z,13.50
2017-07-03T04:07:31.523Z,13.60
2017-07-03T04:29:50.185Z,14.10
2017-07-03T04:32:17.727Z,14.00
2017-07-03T04:34:45.250Z,13.60
2017-07-03T04:37:12.877Z,13.90
2017-07-03T04:39:40.406Z,14.10
2017-07-03T04:42:07.969Z,13.90
2017-07-03T04:44:35.511Z,14.20
2017-07-03T04:47:03.060Z,13.80
2017-07-03T04:49:30.590Z,14.40
2017-07-03T04:51:58.135Z,14.50
2017-07-03T04:54:25.671Z,14.30
2017-07-03T04:56:53.213Z,14.70
2017-07-03T04:59:20.770Z,14.60
2017-07-03T05:01:48.299Z,14.80
2017-07-03T05:04:15.852Z,14.70
2017-07-03T05:06:43.370Z,15.00
2017-07-03T05:09:10.913Z,15.10
2017-07-03T05:11:38.451Z,15.20
2017-07-03T05:14:07.141Z,15.00
2017-07-03T05:16:34.666Z,15.00
2017-07-03T05:19:02.215Z,15.00
2017-07-03T05:21:29.741Z,15.00
2017-07-03T05:23:57.296Z,15.20
2017-07-03T05:26:24.833Z,15.30
2017-07-03T05:28:52.377Z,15.30
2017-07-03T05:31:19.915Z,15.60
2017-07-03T05:33:47.466Z,15.40
2017-07-03T05:36:14.993Z,15.30
2017-07-03T05:38:42.546Z,15.40
2017-07-03T05:41:10.091Z,15.30
2017-07-03T05:43:43.199Z,15.40
2017-07-03T05:46:11.504Z,15.60
2017-07-03T05:48:39.046Z,15.60
2017-07-03T05:51:06.608Z,15.60
2017-07-03T05:53:34.907Z,16.00
2017-07-03T05:56:02.498Z,15.90
2017-07-03T05:58:30.031Z,16.00
2017-07-03T06:00:57.582Z,16.10
2017-07-03T06:03:25.126Z,16.20
2017-07-03T06:05:52.668Z,16.10
2017-07-03T06:08:20.197Z,16.10
2017-07-03T06:10:47.762Z,16.40
2017-07-03T06:13:15.312Z,16.50
2017-07-03T06:15:42.856Z,15.90
2017-07-03T06:18:10.397Z,16.40
2017-07-03T06:20:37.949Z,16.20
2017-07-03T06:23:05.474Z,16.50
2017-07-03T06:25:33.006Z,16.70
2017-07-03T06:28:00.553Z,16.50
2017-07-03T06:30:28.102Z,16.60
2017-07-03T06:32:55.647Z,16.70
2017-07-03T06:35:23.189Z,16.80
2017-07-03T06:37:50.729Z,16.80
2017-07-03T06:40:18.278Z,17.10
2017-07-03T06:42:45.830Z,17.10
2017-07-03T06:45:13.362Z,17.10
2017-07-03T06:47:40.905Z,17.40
2017-07-03T06:50:09.195Z,16.60
2017-07-03T06:52:36.743Z,16.60
2017-07-03T06:55:04.278Z,17.10
2017-07-03T06:57:31.902Z,16.80
2017-07-03T06:59:59.483Z,17.50
2017-07-03T07:02:27.026Z,16.90
2017-07-03T07:04:54.582Z,17.40
2017-07-03T07:07:22.118Z,17.70
2017-07-03T07:09:49.662Z,17.30
2017-07-03T07:12:17.189Z,17.90
2017-07-03T07:14:44.736Z,17.40
2017-07-03T07:17:12.300Z,18.00
2017-07-03T07:19:39.854Z,18.20
2017-07-03T07:22:07.402Z,18.30
2017-07-03T07:24:34.961Z,18.80
2017-07-03T07:27:02.481Z,18.30
2017-07-03T07:29:30.035Z,18.20
2017-07-03T07:31:57.608Z,18.00
2017-07-03T07:34:26.292Z,17.60
2017-07-03T07:36:55.022Z,18.20
2017-07-03T07:39:22.552Z,18.20
2017-07-03T07:41:50.103Z,17.90
2017-07-03T07:44:18.391Z,18.70
2017-07-03T07:46:45.932Z,18.70
2017-07-03T07:49:14.231Z,19.30
2017-07-03T07:51:41.771Z,19.20
2017-07-03T07:54:09.308Z,19.20
2017-07-03T07:56:36.849Z,19.60
2017-07-03T07:59:04.392Z,18.70
2017-07-03T08:01:31.939Z,19.20
2017-07-03T08:03:59.494Z,19.70
2017-07-03T08:06:27.057Z,18.80
2017-07-03T08:08:54.605Z,18.90
2017-07-03T08:11:22.161Z,19.00
2017-07-03T08:13:49.707Z,19.30
2017-07-03T08:16:17.242Z,18.80
2017-07-03T08:18:44.790Z,18.50
2017-07-03T08:21:12.332Z,18.80
2017-07-03T08:23:39.877Z,19.10
2017-07-03T08:26:07.400Z,19.60
2017-07-03T08:28:34.953Z,18.90
2017-07-03T08:31:03.237Z,19.40
2017-07-03T08:33:30.797Z,19.30
2017-07-03T08:38:27.255Z,19.40
2017-07-03T08:40:54.785Z,19.40
2017-07-03T08:55:47.138Z,19.40
2017-07-03T08:58:14.675Z,19.80
2017-07-03T09:03:11.111Z,20.60
2017-07-03T09:05:38.661Z,20.60
2017-07-03T09:20:31.810Z,19.90
2017-07-03T09:22:59.732Z,19.80
2017-07-03T09:27:56.180Z,20.30
2017-07-03T09:30:23.765Z,21.10
2017-07-03T09:32:51.304Z,20.70
2017-07-03T09:35:19.609Z,20.00
2017-07-03T09:37:47.151Z,20.00
2017-07-03T09:40:14.688Z,20.20
2017-07-03T09:42:42.258Z,20.30
2017-07-03T09:45:10.563Z,21.10
2017-07-03T09:47:38.123Z,21.00
2017-07-03T09:50:05.656Z,20.60
2017-07-03T09:52:33.196Z,21.30
2017-07-03T09:55:00.730Z,21.70
2017-07-03T09:57:28.277Z,21.80
2017-07-03T09:59:55.807Z,22.00
2017-07-03T10:02:23.368Z,22.30
2017-07-03T10:04:50.898Z,22.30
2017-07-03T10:07:18.420Z,22.40
2017-07-03T10:12:14.859Z,20.80
2017-07-03T10:14:42.408Z,20.60
2017-07-03T10:17:09.976Z,21.00
2017-07-03T10:19:37.532Z,21.20
2017-07-03T10:22:05.072Z,21.40
2017-07-03T10:24:32.639Z,21.50
2017-07-03T10:34:26.868Z,22.50
2017-07-03T10:36:54.388Z,22.80
2017-07-03T10:39:22.445Z,22.90
2017-07-03T10:41:49.990Z,22.60
2017-07-03T10:44:17.522Z,21.80
2017-07-03T10:46:45.071Z,23.30
2017-07-03T10:49:12.589Z,22.90
2017-07-03T10:51:40.143Z,23.40
2017-07-03T10:54:07.665Z,23.00
2017-07-03T10:56:35.214Z,22.60
2017-07-03T10:59:02.745Z,22.60
2017-07-03T11:01:30.294Z,22.40
2017-07-03T11:03:57.853Z,23.60
2017-07-03T11:06:25.415Z,22.70
2017-07-03T11:08:52.942Z,23.40
2017-07-03T11:11:20.494Z,23.60
2017-07-03T11:13:48.029Z,23.00
2017-07-03T11:16:15.577Z,22.60
2017-07-03T11:18:43.097Z,22.50
2017-07-03T11:21:10.636Z,22.30
2017-07-03T11:23:38.162Z,22.90
2017-07-03T11:26:05.694Z,22.70
2017-07-03T11:28:33.237Z,23.50
2017-07-03T11:31:00.763Z,23.60
2017-07-03T11:33:28.313Z,22.60
2017-07-03T11:35:55.856Z,22.70
2017-07-03T11:38:23.398Z,23.70
2017-07-03T11:40:50.927Z,23.40
2017-07-03T11:43:18.473Z,24.70
2017-07-03T11:45:46.016Z,24.70
2017-07-03T11:48:14.354Z,24.90
2017-07-03T11:50:41.868Z,24.60
2017-07-03T11:53:09.418Z,22.60
2017-07-03T11:55:36.940Z,23.00
2017-07-03T11:58:04.479Z,23.40
2017-07-03T12:00:31.994Z,23.90
2017-07-03T12:03:00.286Z,23.50
2017-07-03T12:05:27.874Z,23.40
2017-07-03T12:20:21.042Z,22.50
2017-07-03T12:22:48.562Z,22.50
2017-07-03T12:25:16.129Z,23.60
2017-07-03T12:30:12.563Z,22.80
2017-07-03T12:35:09.021Z,22.90
2017-07-03T12:37:36.973Z,22.40
2017-07-03T12:40:04.520Z,22.50
2017-07-03T12:45:01.723Z,24.30
2017-07-03T12:47:29.276Z,24.20
2017-07-03T12:49:56.790Z,23.30
2017-07-03T12:52:24.338Z,22.90
2017-07-03T12:54:51.903Z,23.70
2017-07-03T12:57:19.453Z,23.90
2017-07-03T12:59:46.992Z,22.20
2017-07-03T13:02:15.682Z,23.30
2017-07-03T13:04:43.224Z,23.80
2017-07-03T13:07:10.794Z,23.70
2017-07-03T13:09:38.326Z,23.40
2017-07-03T13:12:05.854Z,22.20
2017-07-03T13:14:33.412Z,22.70
2017-07-03T13:17:00.977Z,23.80
2017-07-03T13:19:28.544Z,23.90
2017-07-03T13:21:56.102Z,24.90
2017-07-03T13:24:23.626Z,24.40
2017-07-03T13:26:51.196Z,24.40
2017-07-03T13:29:18.762Z,24.20
2017-07-03T13:31:46.322Z,24.40
2017-07-03T13:34:13.843Z,23.40
2017-07-03T13:36:42.532Z,23.50
2017-07-03T13:39:10.075Z,23.50
2017-07-03T13:41:37.643Z,23.60
2017-07-03T13:44:05.166Z,23.00
2017-07-03T13:46:32.707Z,22.20
2017-07-03T13:49:00.314Z,22.80
2017-07-03T13:51:27.869Z,22.70
2017-07-03T13:53:55.411Z,23.20
2017-07-03T14:01:20.727Z,22.40
2017-07-03T14:03:48.332Z,23.60
2017-07-03T14:06:15.911Z,24.30
2017-07-03T14:08:43.454Z,24.70
2017-07-03T14:11:11.021Z,24.30
2017-07-03T14:13:38.568Z,24.20
2017-07-03T14:16:06.141Z,24.50
2017-07-03T14:18:33.666Z,24.00
2017-07-03T14:23:30.110Z,23.90
2017-07-03T14:25:57.628Z,22.60
2017-07-03T14:28:25.196Z,24.20
2017-07-03T14:30:52.749Z,23.90
2017-07-03T14:33:20.341Z,23.60
2017-07-03T14:35:47.871Z,23.70
2017-07-03T14:38:15.405Z,23.90
2017-07-03T14:40:42.960Z,24.00
2017-07-03T14:43:10.502Z,23.60
2017-07-03T14:45:38.054Z,23.30
2017-07-03T14:48:05.600Z,22.90
2017-07-03T14:50:33.168Z,23.80
2017-07-03T14:53:00.700Z,24.20
2017-07-03T14:55:28.280Z,23.50
2017-07-03T14:57:55.808Z,23.80
2017-07-03T15:00:23.330Z,23.70
2017-07-03T15:02:50.895Z,23.30
2017-07-03T15:05:18.427Z,23.80
2017-07-03T15:07:45.981Z,23.20
2017-07-03T15:10:13.528Z,23.10
2017-07-03T15:12:41.101Z,22.60
2017-07-03T15:15:08.658Z,23.40
2017-07-03T15:17:36.198Z,23.30
2017-07-03T15:20:03.761Z,23.30
2017-07-03T15:22:31.281Z,24.50
2017-07-03T15:24:58.824Z,24.10
2017-07-03T15:27:26.345Z,23.70
2017-07-03T15:29:53.893Z,24.00
2017-07-03T15:32:21.418Z,23.90
2017-07-03T15:34:48.994Z,23.10
2017-07-03T15:37:16.534Z,23.40
2017-07-03T15:39:44.053Z,23.70
2017-07-03T15:42:11.611Z,23.90
2017-07-03T15:44:39.156Z,23.40
2017-07-03T15:47:06.711Z,23.70
2017-07-03T15:49:34.227Z,24.00
2017-07-03T15:52:01.792Z,23.80
2017-07-03T15:54:29.305Z,24.10
2017-07-03T15:56:56.834Z,24.30
2017-07-03T15:59:24.403Z,24.00
2017-07-03T16:01:51.955Z,23.90
2017-07-03T16:04:20.367Z,23.50
2017-07-03T16:06:47.890Z,23.50
2017-07-03T16:09:15.409Z,23.10
2017-07-03T16:11:42.977Z,23.00
2017-07-03T16:14:10.510Z,22.90
2017-07-03T16:16:38.067Z,23.30
2017-07-03T16:19:05.597Z,23.60
2017-07-03T16:21:33.181Z,23.90
2017-07-03T16:24:01.893Z,23.90
2017-07-03T16:26:29.429Z,23.70
2017-07-03T16:28:56.982Z,23.80
2017-07-03T16:31:24.510Z,23.10
2017-07-03T16:33:52.074Z,23.20
2017-07-03T16:36:19.611Z,23.70
2017-07-03T16:38:47.182Z,23.30
2017-07-03T16:41:14.710Z,23.60
2017-07-03T16:43:42.288Z,23.50
2017-07-03T16:46:09.848Z,23.40
2017-07-03T16:48:37.369Z,23.00
2017-07-03T16:51:04.923Z,23.20
2017-07-03T16:53:32.451Z,23.00
2017-07-03T16:56:00.010Z,23.30
2017-07-03T16:58:27.560Z,23.30
2017-07-03T17:00:55.106Z,23.30
2017-07-03T17:03:22.652Z,23.30
2017-07-03T17:05:50.202Z,23.10
2017-07-03T17:08:17.756Z,23.10
2017-07-03T17:10:45.307Z,22.70
2017-07-03T17:13:12.853Z,22.60
2017-07-03T17:15:41.217Z,23.00
2017-07-03T17:18:08.764Z,23.00
2017-07-03T17:20:36.299Z,22.90
2017-07-03T17:23:03.860Z,22.80
2017-07-03T17:25:31.394Z,22.90
2017-07-03T17:27:58.941Z,22.90
2017-07-03T17:30:26.466Z,22.80
2017-07-03T17:32:54.071Z,22.80
2017-07-03T17:35:21.607Z,22.80
2017-07-03T17:37:49.161Z,22.80
2017-07-03T17:40:16.736Z,22.80
2017-07-03T17:42:44.277Z,22.70
2017-07-03T17:45:11.808Z,22.60
2017-07-03T17:47:39.353Z,22.70
2017-07-03T17:50:06.896Z,22.80
2017-07-03T17:52:34.430Z,22.60
2017-07-03T17:55:02.785Z,22.50
2017-07-03T17:57:30.315Z,22.50
2017-07-03T17:59:57.859Z,22.60
2017-07-03T18:02:25.380Z,22.40
2017-07-03T18:04:52.972Z,22.30
2017-07-03T18:07:20.503Z,22.20
2017-07-03T18:09:48.039Z,22.20
2017-07-03T18:12:15.595Z,22.40
2017-07-03T18:14:43.115Z,22.40
2017-07-03T18:17:10.662Z,22.20
2017-07-03T18:19:38.185Z,22.10
2017-07-03T18:22:05.756Z,22.00
2017-07-03T18:24:33.294Z,22.10
2017-07-03T18:27:00.819Z,22.00
2017-07-03T18:29:28.361Z,22.00
2017-07-03T18:31:55.900Z,22.10
2017-07-03T18:34:24.218Z,22.00
2017-07-03T18:36:51.752Z,22.00
2017-07-03T18:39:19.334Z,21.90
2017-07-03T18:41:46.857Z,22.00
2017-07-03T18:44:14.421Z,21.80
2017-07-03T18:46:41.959Z,21.70
2017-07-03T18:49:09.518Z,21.60
2017-07-03T18:51:37.044Z,21.40
2017-07-03T18:54:04.623Z,21.50
2017-07-03T18:56:32.161Z,21.50
2017-07-03T18:58:59.676Z,21.30
2017-07-03T19:01:27.237Z,21.40
2017-07-03T19:03:54.763Z,21.30
2017-07-03T19:06:22.316Z,21.10
2017-07-03T19:08:49.863Z,20.90
2017-07-03T19:11:17.452Z,21.00
2017-07-03T19:13:44.960Z,21.10
2017-07-03T19:16:12.523Z,21.00
2017-07-03T19:18:40.064Z,20.90
2017-07-03T19:21:08.354Z,20.80
2017-07-03T19:23:35.916Z,20.80
2017-07-03T19:26:03.432Z,20.80
2017-07-03T19:28:30.990Z,20.80
2017-07-03T19:30:58.508Z,20.70
2017-07-03T19:33:26.068Z,20.70
2017-07-03T19:35:53.589Z,20.60
2017-07-03T19:38:21.300Z,20.70
2017-07-03T19:40:48.831Z,20.60
2017-07-03T19:43:16.376Z,20.70
2017-07-03T19:45:43.892Z,20.60
2017-07-03T19:48:11.462Z,20.60
2017-07-03T19:50:38.991Z,20.50
2017-07-03T19:53:06.509Z,20.60
2017-07-03T19:55:34.049Z,20.50
2017-07-03T19:58:01.587Z,20.50
2017-07-03T20:00:29.140Z,20.50
2017-07-03T20:02:56.725Z,20.50
2017-07-03T20:05:24.290Z,20.30
2017-07-03T20:07:51.825Z,20.30
2017-07-03T20:10:19.383Z,20.30
2017-07-03T20:12:46.908Z,20.30
2017-07-03T20:15:15.256Z,20.30
2017-07-03T20:17:42.783Z,20.30
2017-07-03T20:20:10.302Z,20.30
2017-07-03T20:22:37.862Z,20.20
2017-07-03T20:25:06.155Z,20.30
2017-07-03T20:27:33.706Z,20.30
2017-07-03T20:30:01.239Z,20.20
2017-07-03T20:32:28.777Z,20.20
2017-07-03T20:34:56.290Z,20.30
2017-07-03T20:37:23.832Z,20.30
2017-07-03T20:39:51.371Z,20.30
2017-07-03T20:42:18.919Z,20.20
2017-07-03T20:44:46.457Z,20.20
2017-07-03T20:47:14.022Z,20.30
2017-07-03T20:49:41.551Z,20.30
2017-07-03T20:52:09.069Z,20.20
2017-07-03T20:54:36.625Z,20.20
2017-07-03T20:57:04.156Z,20.10
2017-07-03T20:59:31.694Z,20.10
2017-07-03T21:01:59.232Z,20.10
2017-07-03T21:04:26.802Z,20.10
2017-07-03T21:06:54.313Z,20.00
2017-07-03T21:09:21.866Z,20.00
2017-07-03T21:11:49.403Z,20.00
2017-07-03T21:14:16.956Z,20.00
2017-07-03T21:16:44.507Z,20.00
2017-07-03T21:19:12.059Z,20.00
2017-07-03T21:21:39.582Z,19.90
2017-07-03T21:24:07.107Z,19.90
2017-07-03T21:26:34.662Z,19.90
2017-07-03T21:29:02.197Z,19.90
2017-07-03T21:31:30.514Z,19.90
2017-07-03T21:33:58.046Z,19.90
2017-07-03T21:36:25.658Z,19.90
2017-07-03T21:38:53.237Z,19.80
2017-07-03T21:41:20.767Z,19.90
2017-07-03T21:43:48.302Z,20.00
2017-07-03T21:46:15.846Z,19.90
2017-07-03T21:48:43.383Z,20.00
2017-07-03T21:51:10.932Z,20.10
2017-07-03T21:53:38.446Z,20.10
2017-07-03T21:56:06.750Z,20.10
2017-07-03T21:58:34.277Z,20.10
2017-07-03T22:01:01.828Z,20.10
2017-07-03T22:03:29.337Z,20.20
2017-07-03T22:05:56.881Z,20.20
2017-07-03T22:08:24.432Z,20.10
2017-07-03T22:10:51.968Z,19.90
2017-07-03T22:13:20.274Z,19.70
2017-07-03T22:15:47.813Z,19.70
2017-07-03T22:18:15.344Z,19.80
2017-07-03T22:20:42.893Z,19.90
2017-07-03T22:23:10.413Z,19.90
2017-07-03T22:25:37.953Z,19.70
2017-07-03T22:28:05.505Z,19.80
2017-07-03T22:30:33.031Z,19.70
2017-07-03T22:33:00.656Z,19.70
2017-07-03T22:35:28.218Z,19.70
2017-07-03T22:37:55.761Z,19.70
2017-07-03T22:40:23.295Z,19.70
2017-07-03T22:42:50.846Z,19.60
2017-07-03T22:45:18.370Z,19.80
2017-07-03T22:47:45.922Z,19.80
2017-07-03T22:50:13.466Z,19.70
2017-07-03T22:52:41.156Z,19.80
2017-07-03T22:55:08.684Z,19.80
2017-07-03T23:07:31.804Z,19.80
2017-07-03T23:09:59.369Z,19.80
2017-07-03T23:12:26.902Z,19.70
2017-07-03T23:14:54.457Z,19.60
2017-07-03T23:17:21.983Z,19.60
2017-07-03T23:19:49.529Z,19.70
2017-07-03T23:22:17.067Z,19.70
2017-07-03T23:24:44.606Z,19.80
2017-07-03T23:27:12.127Z,19.60
2017-07-03T23:29:39.704Z,19.50
2017-07-03T23:32:07.242Z,19.60
2017-07-03T23:34:34.808Z,19.30
2017-07-03T23:37:02.363Z,19.50
2017-07-03T23:39:29.881Z,19.50
2017-07-03T23:41:57.432Z,19.50
2017-07-03T23:44:25.747Z,19.30
2017-07-03T23:46:53.286Z,19.20
2017-07-03T23:49:20.810Z,19.10
2017-07-03T23:51:48.344Z,18.90
2017-07-03T23:54:15.890Z,18.90
2017-07-03T23:56:43.545Z,18.90
2017-07-03T23:59:11.085Z,18.80
